createdAt,value
2018-03-23T00:01:21.299Z,926.02
2018-03-23T00:02:53.113Z,926.11
2018-03-23T00:04:24.929Z,926.07
2018-03-23T00:05:56.744Z,926.10
2018-03-23T00:07:28.560Z,926.12
2018-03-23T00:09:00.424Z,926.12
2018-03-23T00:10:32.189Z,926.12
2018-03-23T00:12:04.004Z,926.11
2018-03-23T00:13:35.919Z,926.09
2018-03-23T00:15:07.634Z,926.10
2018-03-23T00:16:39.449Z,926.03
2018-03-23T00:18:11.264Z,926.00
2018-03-23T00:19:43.184Z,926.13
2018-03-23T00:21:14.893Z,926.12
2018-03-23T00:22:46.708Z,926.08
2018-03-23T00:24:18.523Z,926.09
2018-03-23T00:25:50.338Z,926.08
2018-03-23T00:27:22.153Z,926.06
2018-03-23T00:28:53.968Z,926.10
2018-03-23T00:30:25.783Z,926.13
2018-03-23T00:31:57.698Z,926.19
2018-03-23T00:33:29.415Z,926.20
2018-03-23T00:35:01.228Z,926.23
2018-03-23T00:36:33.044Z,926.17
2018-03-23T00:38:04.862Z,926.22
2018-03-23T00:39:36.678Z,926.18
2018-03-23T00:41:08.489Z,926.18
2018-03-23T00:42:40.304Z,926.19
2018-03-23T00:44:12.120Z,926.13
2018-03-23T00:45:43.935Z,926.15
2018-03-23T00:47:15.752Z,926.15
2018-03-23T00:48:47.565Z,926.14
2018-03-23T00:50:19.632Z,926.19
2018-03-23T00:51:51.196Z,926.21
2018-03-23T00:53:23.012Z,926.21
2018-03-23T00:54:54.827Z,926.24
2018-03-23T00:56:26.743Z,926.24
2018-03-23T00:57:58.458Z,926.20
2018-03-23T00:59:30.320Z,926.23
2018-03-23T01:01:02.089Z,926.20
2018-03-23T01:02:34.107Z,926.20
2018-03-23T01:04:05.721Z,926.16
2018-03-23T01:05:37.536Z,926.14
2018-03-23T01:07:09.354Z,926.08
2018-03-23T01:08:41.265Z,926.14
2018-03-23T01:10:12.982Z,926.08
2018-03-23T01:11:44.797Z,926.12
2018-03-23T01:13:16.612Z,926.18
2018-03-23T01:14:48.427Z,926.18
2018-03-23T01:16:20.244Z,926.19
2018-03-23T01:17:52.059Z,926.21
2018-03-23T01:19:23.873Z,926.19
2018-03-23T01:20:55.789Z,926.13
2018-03-23T01:22:27.511Z,926.18
2018-03-23T01:23:59.320Z,926.15
2018-03-23T01:25:31.136Z,926.18
2018-03-23T01:27:03.057Z,926.17
2018-03-23T01:28:34.772Z,926.19
2018-03-23T01:30:06.580Z,926.11
2018-03-23T01:31:38.397Z,926.14
2018-03-23T01:33:10.211Z,926.06
2018-03-23T01:34:42.026Z,926.02
2018-03-23T01:36:13.841Z,926.01
2018-03-23T01:37:45.656Z,926.03
2018-03-23T01:39:17.472Z,926.03
2018-03-23T01:40:49.286Z,926.04
2018-03-23T01:42:21.102Z,925.99
2018-03-23T01:43:52.918Z,926.02
2018-03-23T01:45:24.832Z,925.99
2018-03-23T01:46:56.547Z,926.05
2018-03-23T01:48:28.362Z,926.02
2018-03-23T01:50:00.179Z,926.02
2018-03-23T01:51:32.093Z,926.02
2018-03-23T01:53:03.807Z,926.00
2018-03-23T01:54:35.622Z,926.03
2018-03-23T01:56:07.437Z,926.04
2018-03-23T01:57:39.254Z,926.02
2018-03-23T01:59:11.067Z,926.05
2018-03-23T02:00:42.881Z,926.06
2018-03-23T02:02:14.697Z,926.02
2018-03-23T02:03:46.612Z,926.02
2018-03-23T02:05:18.328Z,925.99
2018-03-23T02:06:50.142Z,925.96
2018-03-23T02:08:21.957Z,925.99
2018-03-23T02:09:53.771Z,925.96
2018-03-23T02:11:25.587Z,925.94
2018-03-23T02:12:57.402Z,925.92
2018-03-23T02:14:29.217Z,925.90
2018-03-23T02:16:01.031Z,925.91
2018-03-23T02:17:32.847Z,925.95
2018-03-23T02:19:04.661Z,925.93
2018-03-23T02:20:36.480Z,925.96
2018-03-23T02:22:08.543Z,926.02
2018-03-23T02:23:40.110Z,925.97
2018-03-23T02:25:11.922Z,926.02
2018-03-23T02:26:43.736Z,925.91
2018-03-23T02:28:15.551Z,925.94
2018-03-23T02:29:47.366Z,925.90
2018-03-23T02:31:19.181Z,925.93
2018-03-23T02:32:50.998Z,925.89
2018-03-23T02:34:22.811Z,925.85
2018-03-23T02:35:54.626Z,925.90
2018-03-23T02:37:26.442Z,925.87
2018-03-23T02:40:30.171Z,925.89
2018-03-23T02:42:01.888Z,925.90
2018-03-23T02:43:33.702Z,925.91
2018-03-23T02:45:05.516Z,925.84
2018-03-23T02:46:37.335Z,925.88
2018-03-23T02:48:09.147Z,925.83
2018-03-23T02:49:40.960Z,925.84
2018-03-23T02:51:12.776Z,925.78
2018-03-23T02:52:44.693Z,925.77
2018-03-23T02:54:16.412Z,925.81
2018-03-23T02:55:48.221Z,925.83
2018-03-23T02:57:20.059Z,925.78
2018-03-23T02:58:51.952Z,925.79
2018-03-23T03:00:23.664Z,925.80
2018-03-23T03:01:55.480Z,925.79
2018-03-23T03:03:27.295Z,925.76
2018-03-23T03:06:31.177Z,925.73
2018-03-23T03:08:02.740Z,925.78
2018-03-23T03:09:34.558Z,925.82
2018-03-23T03:11:06.369Z,925.81
2018-03-23T03:12:38.184Z,925.83
2018-03-23T03:14:10.002Z,925.82
2018-03-23T03:15:41.814Z,925.78
2018-03-23T03:17:13.630Z,925.75
2018-03-23T03:18:45.545Z,925.78
2018-03-23T03:20:17.260Z,925.71
2018-03-23T03:21:49.076Z,925.68
2018-03-23T03:23:20.890Z,925.65
2018-03-23T03:24:52.856Z,925.68
2018-03-23T03:26:24.521Z,925.64
2018-03-23T03:27:56.335Z,925.63
2018-03-23T03:29:28.151Z,925.67
2018-03-23T03:30:59.967Z,925.63
2018-03-23T03:32:31.781Z,925.60
2018-03-23T03:34:03.597Z,925.64
2018-03-23T03:35:35.412Z,925.58
2018-03-23T03:37:07.329Z,925.58
2018-03-23T03:38:39.042Z,925.60
2018-03-23T03:40:10.858Z,925.57
2018-03-23T03:41:42.674Z,925.59
2018-03-23T03:43:14.638Z,925.57
2018-03-23T03:44:46.303Z,925.58
2018-03-23T03:46:18.118Z,925.58
2018-03-23T03:47:49.933Z,925.56
2018-03-23T03:49:21.750Z,925.56
2018-03-23T03:50:53.567Z,925.60
2018-03-23T03:52:25.378Z,925.61
2018-03-23T03:53:57.193Z,925.63
2018-03-23T03:55:29.263Z,925.61
2018-03-23T03:57:01.026Z,925.63
2018-03-23T03:58:32.639Z,925.63
2018-03-23T04:00:04.454Z,925.60
2018-03-23T04:01:36.270Z,925.63
2018-03-23T04:03:08.088Z,925.61
2018-03-23T04:04:39.899Z,925.59
2018-03-23T04:06:11.714Z,925.59
2018-03-23T04:07:43.780Z,925.64
2018-03-23T04:09:15.344Z,925.58
2018-03-23T04:10:47.159Z,925.56
2018-03-23T04:12:18.974Z,925.56
2018-03-23T04:13:50.889Z,925.53
2018-03-23T04:15:22.604Z,925.56
2018-03-23T04:16:54.419Z,925.51
2018-03-23T04:18:26.234Z,925.52
2018-03-23T04:19:58.049Z,925.56
2018-03-23T04:21:29.864Z,925.55
2018-03-23T04:23:01.679Z,925.56
2018-03-23T04:24:33.500Z,925.61
2018-03-23T04:26:05.410Z,925.54
2018-03-23T04:27:37.125Z,925.55
2018-03-23T04:29:08.939Z,925.56
2018-03-23T04:30:40.755Z,925.57
2018-03-23T04:32:12.820Z,925.59
2018-03-23T04:33:44.386Z,925.55
2018-03-23T04:35:16.200Z,925.53
2018-03-23T04:36:48.016Z,925.51
2018-03-23T04:38:19.831Z,925.52
2018-03-23T04:39:51.646Z,925.48
2018-03-23T04:41:23.462Z,925.45
2018-03-23T04:42:55.277Z,925.42
2018-03-23T04:44:27.243Z,925.36
2018-03-23T04:45:58.908Z,925.37
2018-03-23T04:47:30.726Z,925.38
2018-03-23T04:49:02.539Z,925.35
2018-03-23T04:50:34.455Z,925.34
2018-03-23T04:52:06.169Z,925.31
2018-03-23T04:53:37.985Z,925.33
2018-03-23T04:55:09.801Z,925.31
2018-03-23T04:56:41.716Z,925.24
2018-03-23T04:58:13.434Z,925.16
2018-03-23T05:01:17.062Z,925.11
2018-03-23T05:02:49.029Z,925.06
2018-03-23T05:04:20.701Z,925.02
2018-03-23T05:05:52.508Z,925.00
2018-03-23T05:07:24.324Z,924.93
2018-03-23T05:08:56.241Z,924.87
2018-03-23T05:10:27.955Z,924.77
2018-03-23T05:11:59.771Z,924.80
2018-03-23T05:13:31.586Z,924.71
2018-03-23T05:15:03.551Z,924.73
2018-03-23T05:16:35.218Z,924.72
2018-03-23T05:18:07.032Z,924.67
2018-03-23T05:19:38.851Z,924.60
2018-03-23T05:21:10.662Z,924.60
2018-03-23T05:22:42.477Z,924.55
2018-03-23T05:24:14.293Z,924.58
2018-03-23T05:25:46.111Z,924.53
2018-03-23T05:27:18.623Z,924.54
2018-03-23T05:28:49.738Z,924.52
2018-03-23T05:30:21.552Z,924.54
2018-03-23T05:31:53.368Z,924.48
2018-03-23T05:33:25.182Z,924.53
2018-03-23T05:34:56.998Z,924.49
2018-03-23T05:36:28.815Z,924.52
2018-03-23T05:38:00.628Z,924.51
2018-03-23T05:39:32.695Z,924.53
2018-03-23T05:41:04.258Z,924.55
2018-03-23T05:42:36.072Z,924.49
2018-03-23T05:44:07.888Z,924.50
2018-03-23T05:45:39.954Z,924.41
2018-03-23T05:47:11.517Z,924.45
2018-03-23T05:48:43.332Z,924.48
2018-03-23T05:50:15.148Z,924.37
2018-03-23T05:51:46.976Z,924.38
2018-03-23T05:53:18.778Z,924.45
2018-03-23T05:54:50.593Z,924.41
2018-03-23T05:56:22.408Z,924.38
2018-03-23T05:57:54.325Z,924.33
2018-03-23T05:59:26.039Z,924.27
2018-03-23T06:00:57.855Z,924.21
2018-03-23T06:02:29.670Z,924.19
2018-03-23T06:04:01.589Z,924.11
2018-03-23T06:05:33.300Z,924.09
2018-03-23T06:07:05.115Z,924.07
2018-03-23T06:08:36.929Z,924.03
2018-03-23T06:10:09.000Z,924.12
2018-03-23T06:11:40.562Z,924.03
2018-03-23T06:13:12.373Z,924.12
2018-03-23T06:14:44.188Z,924.16
2018-03-23T06:16:16.003Z,924.05
2018-03-23T06:17:47.817Z,924.16
2018-03-23T06:19:19.632Z,924.11
2018-03-23T06:20:51.447Z,924.10
2018-03-23T06:22:23.362Z,924.02
2018-03-23T06:23:55.077Z,924.11
2018-03-23T06:25:26.891Z,924.03
2018-03-23T06:26:58.909Z,923.96
2018-03-23T06:28:30.623Z,923.96
2018-03-23T06:30:02.336Z,924.01
2018-03-23T06:31:34.150Z,923.97
2018-03-23T06:33:05.969Z,924.08
2018-03-23T06:34:37.780Z,924.07
2018-03-23T06:36:09.596Z,924.06
2018-03-23T06:37:41.409Z,923.92
2018-03-23T06:39:13.224Z,924.02
2018-03-23T06:40:45.239Z,923.97
2018-03-23T06:42:16.858Z,923.95
2018-03-23T06:43:48.669Z,924.09
2018-03-23T06:45:20.487Z,924.02
2018-03-23T06:46:52.298Z,923.97
2018-03-23T06:48:24.117Z,924.02
2018-03-23T06:49:55.932Z,924.02
2018-03-23T06:51:27.747Z,924.01
2018-03-23T06:52:59.562Z,924.05
2018-03-23T06:54:31.385Z,924.04
2018-03-23T06:56:03.194Z,924.06
2018-03-23T06:57:35.005Z,924.02
2018-03-23T06:59:07.070Z,924.03
2018-03-23T07:00:38.635Z,924.05
2018-03-23T07:02:10.450Z,924.04
2018-03-23T07:03:42.264Z,924.09
2018-03-23T07:05:14.079Z,924.13
2018-03-23T07:06:45.895Z,924.10
2018-03-23T07:08:17.708Z,924.14
2018-03-23T07:09:49.525Z,924.15
2018-03-23T07:11:21.338Z,924.09
2018-03-23T07:12:53.154Z,924.19
2018-03-23T07:14:24.968Z,924.22
2018-03-23T07:15:56.782Z,924.19
2018-03-23T07:17:28.798Z,924.23
2018-03-23T07:19:00.413Z,924.24
2018-03-23T07:20:32.228Z,924.23
2018-03-23T07:22:04.044Z,924.26
2018-03-23T07:23:35.858Z,924.24
2018-03-23T07:25:07.675Z,924.26
2018-03-23T07:26:39.488Z,924.27
2018-03-23T07:28:11.303Z,924.30
2018-03-23T07:29:43.268Z,924.34
2018-03-23T07:31:14.933Z,924.41
2018-03-23T07:32:46.748Z,924.34
2018-03-23T07:34:18.564Z,924.37
2018-03-23T07:35:51.131Z,924.38
2018-03-23T07:37:22.193Z,924.36
2018-03-23T07:38:54.007Z,924.32
2018-03-23T07:40:25.823Z,924.35
2018-03-23T07:41:57.637Z,924.35
2018-03-23T07:43:29.452Z,924.37
2018-03-23T07:45:01.267Z,924.39
2018-03-23T07:46:33.082Z,924.45
2018-03-23T07:48:04.898Z,924.47
2018-03-23T07:49:36.712Z,924.52
2018-03-23T07:51:08.527Z,924.49
2018-03-23T07:52:40.338Z,924.52
2018-03-23T07:54:12.352Z,924.54
2018-03-23T07:55:43.966Z,924.51
2018-03-23T07:57:15.781Z,924.52
2018-03-23T07:58:47.596Z,924.56
2018-03-23T08:00:19.565Z,924.51
2018-03-23T08:01:51.226Z,924.53
2018-03-23T08:03:23.041Z,924.51
2018-03-23T08:04:54.855Z,924.45
2018-03-23T08:06:26.670Z,924.46
2018-03-23T08:07:58.485Z,924.47
2018-03-23T08:09:30.300Z,924.41
2018-03-23T08:11:02.115Z,924.42
2018-03-23T08:12:34.281Z,924.50
2018-03-23T08:14:05.744Z,924.59
2018-03-23T08:15:37.559Z,924.58
2018-03-23T08:17:09.377Z,924.69
2018-03-23T08:18:41.188Z,924.60
2018-03-23T08:20:13.003Z,924.67
2018-03-23T08:23:16.633Z,924.77
2018-03-23T08:24:48.549Z,924.75
2018-03-23T08:26:20.262Z,924.74
2018-03-23T08:27:52.078Z,924.78
2018-03-23T08:29:23.892Z,924.73
2018-03-23T08:30:55.808Z,924.72
2018-03-23T08:32:27.522Z,924.68
2018-03-23T08:33:59.337Z,924.70
2018-03-23T08:35:31.153Z,924.67
2018-03-23T08:37:02.967Z,924.73
2018-03-23T08:38:34.782Z,924.69
2018-03-23T08:40:06.597Z,924.64
2018-03-23T08:41:38.412Z,924.63
2018-03-23T08:43:10.477Z,924.65
2018-03-23T08:44:42.042Z,924.63
2018-03-23T08:46:13.857Z,924.62
2018-03-23T08:47:46.191Z,924.59
2018-03-23T08:49:17.588Z,924.61
2018-03-23T08:50:49.302Z,924.62
2018-03-23T08:52:21.117Z,924.60
2018-03-23T08:53:52.932Z,924.59
2018-03-23T08:55:24.848Z,924.66
2018-03-23T08:56:56.561Z,924.69
2018-03-23T08:58:28.377Z,924.74
2018-03-23T09:00:00.192Z,924.73
2018-03-23T09:01:32.007Z,924.74
2018-03-23T09:03:03.822Z,924.75
2018-03-23T09:04:35.637Z,924.76
2018-03-23T09:06:07.453Z,924.74
2018-03-23T09:07:39.366Z,924.71
2018-03-23T09:09:11.081Z,924.73
2018-03-23T09:10:42.896Z,924.67
2018-03-23T09:12:14.715Z,924.67
2018-03-23T09:13:46.630Z,924.76
2018-03-23T09:15:18.365Z,924.74
2018-03-23T09:16:50.155Z,924.79
2018-03-23T09:18:21.970Z,924.83
2018-03-23T09:19:53.785Z,924.85
2018-03-23T09:21:25.599Z,924.81
2018-03-23T09:22:57.415Z,924.89
2018-03-23T09:24:29.261Z,924.90
2018-03-23T09:26:01.148Z,924.96
2018-03-23T09:27:32.859Z,924.91
2018-03-23T09:29:04.673Z,924.92
2018-03-23T09:30:36.489Z,924.97
2018-03-23T09:32:08.303Z,925.02
2018-03-23T09:33:40.119Z,925.01
2018-03-23T09:35:11.933Z,925.09
2018-03-23T09:36:43.750Z,925.09
2018-03-23T09:38:15.569Z,925.14
2018-03-23T09:39:47.381Z,925.15
2018-03-23T09:41:19.195Z,925.12
2018-03-23T09:42:51.009Z,925.12
2018-03-23T09:44:23.024Z,925.11
2018-03-23T09:45:54.639Z,925.19
2018-03-23T09:47:26.454Z,925.18
2018-03-23T09:48:58.271Z,925.23
2018-03-23T09:50:30.085Z,925.23
2018-03-23T09:52:01.905Z,925.22
2018-03-23T09:53:33.716Z,925.25
2018-03-23T09:56:37.350Z,925.24
2018-03-23T09:58:09.163Z,925.21
2018-03-23T09:59:41.502Z,925.26
2018-03-23T10:01:13.317Z,925.26
2018-03-23T10:02:44.911Z,925.26
2018-03-23T10:04:16.426Z,925.30
2018-03-23T10:05:48.243Z,925.24
2018-03-23T10:07:20.074Z,925.37
2018-03-23T10:10:23.692Z,925.42
2018-03-23T10:13:27.326Z,925.44
2018-03-23T10:14:59.446Z,925.51
2018-03-23T10:16:30.960Z,925.54
2018-03-23T10:18:02.776Z,925.52
2018-03-23T10:19:34.594Z,925.46
2018-03-23T10:21:06.412Z,925.48
2018-03-23T10:22:38.330Z,925.55
2018-03-23T10:24:10.050Z,925.54
2018-03-23T10:25:41.865Z,925.55
2018-03-23T10:27:13.683Z,925.67
2018-03-23T10:34:52.777Z,925.66
2018-03-23T10:36:24.596Z,925.71
2018-03-23T10:37:56.444Z,925.87
2018-03-23T10:39:28.239Z,925.84
2018-03-23T10:41:00.152Z,925.92
2018-03-23T10:42:31.879Z,925.80
2018-03-23T10:44:03.692Z,925.73
2018-03-23T10:47:07.336Z,925.70
2018-03-23T10:48:39.454Z,925.72
2018-03-23T10:50:10.971Z,925.73
2018-03-23T10:51:42.810Z,925.75
2018-03-23T10:53:14.808Z,925.73
2018-03-23T10:54:46.428Z,925.79
2018-03-23T10:56:18.248Z,925.84
2018-03-23T10:59:22.142Z,925.83
2018-03-23T11:00:53.710Z,925.81
2018-03-23T11:03:57.351Z,925.92
2018-03-23T11:05:29.180Z,926.02
2018-03-23T11:07:01.011Z,926.03
2018-03-23T11:10:04.641Z,926.07
2018-03-23T11:11:36.456Z,926.14
2018-03-23T11:13:08.482Z,926.15
2018-03-23T11:14:40.621Z,926.17
2018-03-23T11:16:11.961Z,926.23
2018-03-23T11:17:43.843Z,926.42
2018-03-23T11:19:15.869Z,926.34
2018-03-23T11:20:47.387Z,926.46
2018-03-23T11:23:51.235Z,926.38
2018-03-23T11:25:22.855Z,926.36
2018-03-23T11:26:54.679Z,926.42
2018-03-23T11:33:02.524Z,926.48
2018-03-23T11:34:33.795Z,926.41
2018-03-23T11:36:05.618Z,926.44
2018-03-23T11:37:37.444Z,926.44
2018-03-23T11:39:09.366Z,926.44
2018-03-23T11:40:41.292Z,926.49
2018-03-23T11:42:12.912Z,926.44
2018-03-23T11:43:44.736Z,926.49
2018-03-23T11:45:16.559Z,926.41
2018-03-23T11:46:48.382Z,926.50
2018-03-23T11:48:20.205Z,926.46
2018-03-23T11:49:52.029Z,926.54
2018-03-23T11:51:23.953Z,926.57
2018-03-23T11:52:55.676Z,926.56
2018-03-23T11:55:59.323Z,926.57
2018-03-23T11:59:02.971Z,926.64
2018-03-23T12:00:35.315Z,926.58
2018-03-23T12:02:06.618Z,926.58
2018-03-23T12:03:38.447Z,926.59
2018-03-23T12:05:10.267Z,926.55
2018-03-23T12:06:42.091Z,926.59
2018-03-23T12:08:14.125Z,926.56
2018-03-23T12:11:17.967Z,926.54
2018-03-23T12:12:49.403Z,926.58
2018-03-23T12:14:21.315Z,926.55
2018-03-23T12:17:25.001Z,926.45
2018-03-23T12:18:56.686Z,926.49
2018-03-23T12:20:28.512Z,926.51
2018-03-23T12:22:04.825Z,926.48
2018-03-23T12:23:32.680Z,926.45
2018-03-23T12:25:14.816Z,926.45
2018-03-23T12:26:36.013Z,926.47
2018-03-23T12:28:08.741Z,926.48
2018-03-23T12:31:11.589Z,926.48
2018-03-23T12:32:44.594Z,926.47
2018-03-23T12:34:14.999Z,926.48
2018-03-23T12:35:47.167Z,926.47
2018-03-23T12:37:23.661Z,926.31
2018-03-23T12:38:54.679Z,926.38
2018-03-23T12:40:23.580Z,926.43
2018-03-23T12:41:55.451Z,926.46
2018-03-23T12:43:26.950Z,926.47
2018-03-23T12:44:57.725Z,926.45
2018-03-23T12:46:29.958Z,926.44
2018-03-23T12:48:01.374Z,926.47
2018-03-23T12:49:34.001Z,926.46
2018-03-23T12:51:05.717Z,926.41
2018-03-23T12:52:37.722Z,926.44
2018-03-23T12:55:40.735Z,926.40
2018-03-23T12:57:20.459Z,926.38
2018-03-23T12:58:48.141Z,926.41
2018-03-23T13:00:26.335Z,926.48
2018-03-23T13:01:48.397Z,926.50
2018-03-23T13:03:20.510Z,926.47
2018-03-23T13:04:52.672Z,926.51
2018-03-23T13:06:35.342Z,926.48
2018-03-23T13:07:56.648Z,926.52
2018-03-23T13:09:27.406Z,926.57
2018-03-23T13:11:00.924Z,926.54
2018-03-23T13:12:36.423Z,926.52
2018-03-23T13:14:07.970Z,926.47
2018-03-23T13:15:34.646Z,926.51
2018-03-23T13:17:06.912Z,926.46
2018-03-23T13:18:38.442Z,926.47
2018-03-23T13:20:10.461Z,926.43
2018-03-23T13:21:41.521Z,926.42
2018-03-23T13:23:13.549Z,926.42
2018-03-23T13:24:45.173Z,926.38
2018-03-23T13:26:17.099Z,926.39
2018-03-23T13:27:49.547Z,926.39
2018-03-23T13:29:20.856Z,926.37
2018-03-23T13:30:52.495Z,926.37
2018-03-23T13:32:24.354Z,926.34
2018-03-23T13:33:56.416Z,926.32
2018-03-23T13:35:27.956Z,926.28
2018-03-23T13:36:59.806Z,926.33
2018-03-23T13:38:32.418Z,926.32
2018-03-23T13:40:03.436Z,926.26
2018-03-23T13:41:35.374Z,926.25
2018-03-23T13:43:07.292Z,926.26
2018-03-23T13:44:39.107Z,926.24
2018-03-23T13:46:10.766Z,926.27
2018-03-23T13:47:42.774Z,926.25
2018-03-23T13:49:14.703Z,926.23
2018-03-23T13:50:46.229Z,926.21
2018-03-23T13:52:18.314Z,926.24
2018-03-23T13:53:49.883Z,926.21
2018-03-23T13:56:53.540Z,926.28
2018-03-23T13:58:25.572Z,926.32
2018-03-23T13:59:57.197Z,926.34
2018-03-23T14:01:29.026Z,926.35
2018-03-23T14:03:00.955Z,926.40
2018-03-23T14:04:32.683Z,926.41
2018-03-23T14:07:36.645Z,926.37
2018-03-23T14:09:08.171Z,926.42
2018-03-23T14:12:11.830Z,926.14
2018-03-23T14:13:43.864Z,926.05
2018-03-23T14:16:47.598Z,925.93
2018-03-23T14:18:19.356Z,925.96
2018-03-23T14:19:51.111Z,925.92
2018-03-23T14:22:54.891Z,925.97
2018-03-23T14:24:26.474Z,925.94
2018-03-23T14:25:58.301Z,925.87
2018-03-23T14:27:30.247Z,925.74
2018-03-23T14:30:33.791Z,925.71
2018-03-23T14:32:05.647Z,925.70
2018-03-23T14:33:37.971Z,925.65
2018-03-23T14:35:09.278Z,925.70
2018-03-23T14:36:41.112Z,925.63
2018-03-23T14:38:12.942Z,925.69
2018-03-23T14:39:44.771Z,925.61
2018-03-23T14:41:16.644Z,925.60
2018-03-23T14:42:48.531Z,925.50
2018-03-23T14:44:20.262Z,925.53
2018-03-23T14:45:52.146Z,925.50
2018-03-23T14:47:23.926Z,925.50
2018-03-23T14:50:27.994Z,925.53
2018-03-23T14:51:59.929Z,925.49
2018-03-23T14:53:31.246Z,925.46
2018-03-23T14:56:34.901Z,925.40
2018-03-23T14:58:06.732Z,925.36
2018-03-23T14:59:38.576Z,925.37
2018-03-23T15:01:10.398Z,925.37
2018-03-23T15:02:42.530Z,925.43
2018-03-23T15:04:14.059Z,925.45
2018-03-23T15:05:45.887Z,925.41
2018-03-23T15:07:18.253Z,925.39
2018-03-23T15:08:49.549Z,925.32
2018-03-23T15:10:21.379Z,925.30
2018-03-23T15:13:25.044Z,925.30
2018-03-23T15:14:56.876Z,925.32
2018-03-23T15:16:28.766Z,925.32
2018-03-23T15:18:00.744Z,925.34
2018-03-23T15:19:32.379Z,925.32
2018-03-23T15:22:36.398Z,925.25
2018-03-23T15:24:07.880Z,925.15
2018-03-23T15:27:11.752Z,925.11
2018-03-23T15:28:43.381Z,925.22
2018-03-23T15:30:15.213Z,925.27
2018-03-23T15:31:47.044Z,925.23
2018-03-23T15:33:18.876Z,925.15
2018-03-23T15:34:50.704Z,925.19
2018-03-23T15:36:22.536Z,925.11
2018-03-23T15:37:54.366Z,925.15
2018-03-23T15:39:26.419Z,925.09
2018-03-23T15:42:30.171Z,925.01
2018-03-23T15:44:01.892Z,924.95
2018-03-23T15:45:33.517Z,925.06
2018-03-23T15:47:05.347Z,924.90
2018-03-23T15:48:37.178Z,924.94
2018-03-23T15:50:09.007Z,924.92
2018-03-23T15:51:40.837Z,924.89
2018-03-23T15:53:13.800Z,924.87
2018-03-23T15:54:44.497Z,924.95
2018-03-23T15:56:16.332Z,924.94
2018-03-23T15:57:48.162Z,924.90
2018-03-23T15:59:20.248Z,924.94
2018-03-23T16:00:51.925Z,924.89
2018-03-23T16:02:23.789Z,924.88
2018-03-23T16:03:55.594Z,924.96
2018-03-23T16:05:27.836Z,924.80
2018-03-23T16:06:59.351Z,924.79
2018-03-23T16:08:31.336Z,924.74
2018-03-23T16:10:03.022Z,924.72
2018-03-23T16:11:34.985Z,924.76
2018-03-23T16:13:06.473Z,924.80
2018-03-23T16:14:38.668Z,924.89
2018-03-23T16:16:10.334Z,924.98
2018-03-23T16:17:42.165Z,925.00
2018-03-23T16:19:13.949Z,925.01
2018-03-23T16:20:45.622Z,925.00
2018-03-23T16:22:18.021Z,924.85
2018-03-23T16:23:49.734Z,924.60
2018-03-23T16:26:52.951Z,924.51
2018-03-23T16:28:24.830Z,924.49
2018-03-23T16:29:56.609Z,924.46
2018-03-23T16:31:28.438Z,924.53
2018-03-23T16:33:00.755Z,924.50
2018-03-23T16:34:32.099Z,924.59
2018-03-23T16:36:04.128Z,924.67
2018-03-23T16:37:35.784Z,924.60
2018-03-23T16:40:40.180Z,924.63
2018-03-23T16:42:11.234Z,924.73
2018-03-23T16:43:43.314Z,924.73
2018-03-23T16:45:15.194Z,924.71
2018-03-23T16:46:46.716Z,924.70
2018-03-23T16:48:18.748Z,924.64
2018-03-23T16:51:22.202Z,924.60
2018-03-23T16:52:54.367Z,924.47
2018-03-23T16:54:26.365Z,924.41
2018-03-23T16:55:57.688Z,924.47
2018-03-23T16:57:30.062Z,924.43
2018-03-23T16:59:01.445Z,924.41
2018-03-23T17:00:33.181Z,924.38
2018-03-23T17:02:04.999Z,924.38
2018-03-23T17:05:09.082Z,924.34
2018-03-23T17:06:40.785Z,924.44
2018-03-23T17:08:12.314Z,924.53
2018-03-23T17:09:44.339Z,924.52
2018-03-23T17:11:16.022Z,924.45
2018-03-23T17:12:48.169Z,924.41
2018-03-23T17:14:19.616Z,924.39
2018-03-23T17:15:51.971Z,924.40
2018-03-23T17:17:23.974Z,924.42
2018-03-23T17:18:55.373Z,924.46
2018-03-23T17:20:26.974Z,924.34
2018-03-23T17:21:59.078Z,924.43
2018-03-23T17:23:30.914Z,924.43
2018-03-23T17:25:02.413Z,924.40
2018-03-23T17:26:34.242Z,924.36
2018-03-23T17:28:06.589Z,924.35
2018-03-23T17:31:10.034Z,924.37
2018-03-23T17:32:42.282Z,924.40
2018-03-23T17:34:13.635Z,924.42
2018-03-23T17:35:45.217Z,924.46
2018-03-23T17:37:17.651Z,924.43
2018-03-23T17:38:48.873Z,924.44
2018-03-23T17:40:21.219Z,924.41
2018-03-23T17:41:52.532Z,924.39
2018-03-23T17:43:24.407Z,924.37
2018-03-23T17:44:56.268Z,924.36
2018-03-23T17:48:00.092Z,924.34
2018-03-23T17:51:03.498Z,924.28
2018-03-23T17:52:35.328Z,924.17
2018-03-23T17:54:07.155Z,924.19
2018-03-23T17:55:39.465Z,924.08
2018-03-23T17:58:42.737Z,924.04
2018-03-23T18:00:14.666Z,924.14
2018-03-23T18:01:47.416Z,924.11
2018-03-23T18:03:18.115Z,924.15
2018-03-23T18:04:49.948Z,924.10
2018-03-23T18:06:21.789Z,924.16
2018-03-23T18:09:25.438Z,924.11
2018-03-23T18:10:57.245Z,924.06
2018-03-23T18:12:29.066Z,924.05
2018-03-23T18:15:32.713Z,924.22
2018-03-23T18:20:08.370Z,924.33
2018-03-23T18:23:11.833Z,924.23
2018-03-23T18:24:43.803Z,924.21
2018-03-23T18:26:15.482Z,924.16
2018-03-23T18:27:47.537Z,924.25
2018-03-23T18:29:19.585Z,924.21
2018-03-23T18:30:50.989Z,924.24
2018-03-23T18:32:23.088Z,924.23
2018-03-23T18:33:55.136Z,924.20
2018-03-23T18:35:26.553Z,924.18
2018-03-23T18:36:58.255Z,924.09
2018-03-23T18:38:30.183Z,924.15
2018-03-23T18:40:02.220Z,924.20
2018-03-23T18:41:33.729Z,924.28
2018-03-23T18:43:05.565Z,924.24
2018-03-23T18:46:09.356Z,924.31
2018-03-23T18:47:41.028Z,924.28
2018-03-23T18:49:13.002Z,924.28
2018-03-23T18:52:16.500Z,924.23
2018-03-23T18:53:48.628Z,924.27
2018-03-23T18:58:24.102Z,924.32
2018-03-23T18:59:55.626Z,924.20
2018-03-23T19:01:27.470Z,924.34
2018-03-23T19:02:59.286Z,924.34
2018-03-23T19:04:31.098Z,924.22
2018-03-23T19:07:34.740Z,924.30
2018-03-23T19:09:06.564Z,924.35
2018-03-23T19:12:10.219Z,924.30
2018-03-23T19:13:42.237Z,924.26
2018-03-23T19:15:14.376Z,924.24
2018-03-23T19:16:46.390Z,924.24
2018-03-23T19:18:17.606Z,924.33
2018-03-23T19:22:52.972Z,924.31
2018-03-23T19:24:24.794Z,924.29
2018-03-23T19:25:56.820Z,924.19
2018-03-23T19:27:28.440Z,924.19
2018-03-23T19:29:00.823Z,924.16
2018-03-23T19:30:32.389Z,924.15
2018-03-23T19:32:03.925Z,924.10
2018-03-23T19:33:36.265Z,924.06
2018-03-23T19:35:07.551Z,924.00
2018-03-23T19:36:39.477Z,923.99
2018-03-23T19:38:11.198Z,923.97
2018-03-23T19:39:43.534Z,924.04
2018-03-23T19:41:14.839Z,923.96
2018-03-23T19:42:46.666Z,924.05
2018-03-23T19:45:50.661Z,924.05
2018-03-23T19:47:22.383Z,924.07
2018-03-23T19:48:53.948Z,924.10
2018-03-23T19:51:59.674Z,924.23
2018-03-23T19:53:30.128Z,924.24
2018-03-23T19:56:33.817Z,924.29
2018-03-23T19:58:04.870Z,924.33
2018-03-23T19:59:36.690Z,924.33
2018-03-23T20:01:08.850Z,924.29
2018-03-23T20:02:40.503Z,924.32
2018-03-23T20:05:44.175Z,924.31
2018-03-23T20:07:16.095Z,924.26
2018-03-23T20:08:47.622Z,924.24
2018-03-23T20:10:19.437Z,924.19
2018-03-23T20:11:51.454Z,924.17
2018-03-23T20:13:23.071Z,924.16
2018-03-23T20:14:55.005Z,924.10
2018-03-23T20:16:26.711Z,924.12
2018-03-23T20:17:58.530Z,924.09
2018-03-23T20:19:30.351Z,924.14
2018-03-23T20:22:34.194Z,924.17
2018-03-23T20:24:06.114Z,924.20
2018-03-23T20:27:09.640Z,924.29
2018-03-23T20:28:41.600Z,924.24
2018-03-23T20:30:13.089Z,924.33
2018-03-23T20:31:44.908Z,924.29
2018-03-23T20:33:16.727Z,924.42
2018-03-23T20:34:48.798Z,924.43
2018-03-23T20:36:20.565Z,924.47
2018-03-23T20:37:52.186Z,924.47
2018-03-23T20:40:55.824Z,924.50
2018-03-23T20:43:59.462Z,924.52
2018-03-23T20:45:31.287Z,924.46
2018-03-23T20:47:03.101Z,924.50